Time;durP1;ratioP1;P1;durP2;ratioP2;P2;SDS_P1;SDS_P2;PMS_P1;PMS_P2;Temp;Humidity;BMP_temperature;BMP_pressure;BME280_temperature;BME280_humidity;BME280_pressure;Samples;Min_cycle;Max_cycle;Signal;HPM_P1;HPM_P2
2021/07/05 14:05:03;;;;;;;;;;;;;;;;;;1;1000000000;0;-41
2021/07/05 14:05:29;;;;;;;1.30;1.40;;;;;;;;;;1;1000000000;0;-49
2021/07/05 14:05:33;;;;;;;1.30;1.40;;;;;;;;;;1;1000000000;0;-38
2021/07/05 14:05:38;;;;;;;1.30;1.40;;;;;;;;;;1;1000000000;0;-43
2021/07/05 14:05:43;;;;;;;1.30;1.40;;;;;;;;;;1;1000000000;0;-48
2021/07/05 14:05:54;;;;;;;1.30;1.40;;;;;;;;;;1;1000000000;0;-43
2021/07/05 14:06:01;;;;;;;1.30;1.40;;;;;;;;;;1;1000000000;0;-42
2021/07/05 14:06:09;;;;;;;1.30;1.40;;;;;;;;;;1;1000000000;0;-38
2021/07/05 14:06:15;;;;;;;1.30;1.40;;;;;;;;;;1;1000000000;0;-49
2021/07/05 14:06:20;;;;;;;1.30;1.40;;;;;;;;;;1;1000000000;0;-45
2021/07/05 14:06:25;;;;;;;1.30;1.40;;;;;;;;;;1;1000000000;0;-45
2021/07/05 14:06:29;;;;;;;1.30;1.40;;;;;;;;;;1;1000000000;0;-38
2021/07/05 14:09:11;;;;;;;;;;;;;;;;;;1;1000000000;0;-65
2021/07/05 14:09:15;;;;;;;1.30;1.40;;;;;;;;;;1;1000000000;0;-49
2021/07/05 14:09:19;;;;;;;1.30;1.40;;;;;;;;;;1;1000000000;0;-48
2021/07/05 14:09:24;;;;;;;1.30;1.40;;;;;;;;;;1;1000000000;0;-48
2021/07/05 14:10:54;;;;;;;;;;;;;;;;;;1;1000000000;0;-66
2021/07/05 14:11:01;;;;;;;1.30;1.40;;;;;;;;;;1;1000000000;0;-50
2021/07/05 14:11:07;;;;;;;1.30;1.40;;;;;;;;;;1;1000000000;0;-49
2021/07/05 14:26:34;;;;;;;;;;;;;;;;;;1;1000000000;0;-23
2021/07/05 14:26:38;;;;;;;1.30;1.40;;;;;;;;;;1;1000000000;0;-39
2021/07/05 14:26:43;;;;;;;1.30;1.40;;;;;;;;;;1;1000000000;0;-37
2021/07/05 14:26:47;;;;;;;1.30;1.40;;;;;;;;;;1;1000000000;0;-37
2021/07/05 14:26:53;;;;;;;1.30;1.40;;;;;;;;;;1;1000000000;0;-37
2021/07/05 14:26:59;;;;;;;1.30;1.40;;;;;;;;;;1;1000000000;0;-38
2021/07/05 14:27:04;;;;;;;1.30;1.40;;;;;;;;;;1;1000000000;0;-38
2021/07/05 14:27:08;;;;;;;1.30;1.40;;;;;;;;;;1;1000000000;0;-37
2021/07/05 14:27:13;;;;;;;1.30;1.40;;;;;;;;;;1;1000000000;0;-36
2021/07/05 14:27:17;;;;;;;1.30;1.40;;;;;;;;;;1;1000000000;0;-37
2021/07/05 14:27:21;;;;;;;1.30;1.40;;;;;;;;;;1;1000000000;0;-37
2021/07/05 14:27:26;;;;;;;1.30;1.40;;;;;;;;;;1;1000000000;0;-37
2021/07/05 14:27:30;;;;;;;1.30;1.40;;;;;;;;;;1;1000000000;0;-38
2021/07/05 14:27:35;;;;;;;1.30;1.40;;;;;;;;;;1;1000000000;0;-37
2021/07/05 14:27:40;;;;;;;1.30;1.40;;;;;;;;;;1;1000000000;0;-36
2021/07/05 14:27:46;;;;;;;1.30;1.40;;;;;;;;;;1;1000000000;0;-36
2021/07/05 14:27:51;;;;;;;1.30;1.40;;;;;;;;;;1;1000000000;0;-36
2021/07/05 14:27:55;;;;;;;1.30;1.40;;;;;;;;;;1;1000000000;0;-37
2021/07/05 14:28:00;;;;;;;1.30;1.40;;;;;;;;;;1;1000000000;0;-36
2021/07/05 14:28:04;;;;;;;1.30;1.40;;;;;;;;;;1;1000000000;0;-36
2021/07/05 14:28:09;;;;;;;1.30;1.40;;;;;;;;;;1;1000000000;0;-39
2021/07/05 14:28:14;;;;;;;1.30;1.40;;;;;;;;;;1;1000000000;0;-37
2021/07/05 14:28:20;;;;;;;1.30;1.40;;;;;;;;;;1;1000000000;0;-37
2021/07/05 14:28:25;;;;;;;1.30;1.40;;;;;;;;;;1;1000000000;0;-25
2021/07/05 14:28:30;;;;;;;1.30;1.40;;;;;;;;;;1;1000000000;0;-27
2021/07/05 14:28:36;;;;;;;1.30;1.40;;;;;;;;;;1;1000000000;0;-36
2021/07/05 14:28:41;;;;;;;1.30;1.40;;;;;;;;;;1;1000000000;0;-38
2021/07/05 14:28:45;;;;;;;1.30;1.40;;;;;;;;;;1;1000000000;0;-38
2021/07/05 14:28:50;;;;;;;1.30;1.40;;;;;;;;;;1;1000000000;0;-38
2021/07/05 14:28:54;;;;;;;1.30;1.40;;;;;;;;;;1;1000000000;0;-39
2021/07/05 14:28:58;;;;;;;1.30;1.40;;;;;;;;;;1;1000000000;0;-38
2021/07/05 14:29:03;;;;;;;1.30;1.40;;;;;;;;;;1;1000000000;0;-38
2021/07/05 14:29:07;;;;;;;1.30;1.40;;;;;;;;;;1;1000000000;0;-37
2021/07/05 14:29:11;;;;;;;1.30;1.40;;;;;;;;;;1;1000000000;0;-37
2021/07/05 14:29:16;;;;;;;1.30;1.40;;;;;;;;;;1;1000000000;0;-36
2021/07/05 14:29:20;;;;;;;1.30;1.40;;;;;;;;;;1;1000000000;0;-36
2021/07/05 14:29:24;;;;;;;1.30;1.40;;;;;;;;;;1;1000000000;0;-37
2021/07/05 14:29:29;;;;;;;1.30;1.40;;;;;;;;;;1;1000000000;0;-36
2021/07/05 14:29:33;;;;;;;1.30;1.40;;;;;;;;;;1;1000000000;0;-39
2021/07/05 14:29:39;;;;;;;1.30;1.40;;;;;;;;;;1;1000000000;0;-35
2021/07/05 14:29:44;;;;;;;1.30;1.40;;;;;;;;;;1;1000000000;0;-36
2021/07/05 14:29:48;;;;;;;1.30;1.40;;;;;;;;;;1;1000000000;0;-35
2021/07/05 14:29:53;;;;;;;1.30;1.40;;;;;;;;;;1;1000000000;0;-36
2021/07/05 14:29:58;;;;;;;1.30;1.40;;;;;;;;;;1;1000000000;0;-36
2021/07/05 14:30:02;;;;;;;1.30;1.40;;;;;;;;;;1;1000000000;0;-37
2021/07/05 14:30:08;;;;;;;1.30;1.40;;;;;;;;;;1;1000000000;0;-37
2021/07/05 14:30:15;;;;;;;1.30;1.40;;;;;;;;;;1;1000000000;0;-40
2021/07/05 14:30:20;;;;;;;1.30;1.40;;;;;;;;;;1;1000000000;0;-37
2021/07/05 14:30:26;;;;;;;1.30;1.40;;;;;;;;;;1;1000000000;0;-36
2021/07/05 14:30:32;;;;;;;1.30;1.40;;;;;;;;;;1;1000000000;0;-36
2021/07/05 14:30:36;;;;;;;1.30;1.40;;;;;;;;;;1;1000000000;0;-38
2021/07/05 14:30:42;;;;;;;1.30;1.40;;;;;;;;;;1;1000000000;0;-36
2021/07/05 14:30:47;;;;;;;1.30;1.40;;;;;;;;;;1;1000000000;0;-35
2021/07/05 14:30:53;;;;;;;1.30;1.40;;;;;;;;;;1;1000000000;0;-36
2021/07/05 14:31:01;;;;;;;1.30;1.40;;;;;;;;;;1;1000000000;0;-36
2021/07/05 14:31:06;;;;;;;1.30;1.40;;;;;;;;;;1;1000000000;0;-35
2021/07/05 14:31:11;;;;;;;1.30;1.40;;;;;;;;;;1;1000000000;0;-36
2021/07/05 14:31:15;;;;;;;1.30;1.40;;;;;;;;;;1;1000000000;0;-41
2021/07/05 14:31:20;;;;;;;1.30;1.40;;;;;;;;;;1;1000000000;0;-43
2021/07/05 14:31:24;;;;;;;1.30;1.40;;;;;;;;;;1;1000000000;0;-42
2021/07/05 14:31:29;;;;;;;1.30;1.40;;;;;;;;;;1;1000000000;0;-41
2021/07/05 14:31:35;;;;;;;1.30;1.40;;;;;;;;;;1;1000000000;0;-42
2021/07/05 14:31:39;;;;;;;1.30;1.40;;;;;;;;;;1;1000000000;0;-44
2021/07/05 14:31:44;;;;;;;1.30;1.40;;;;;;;;;;1;1000000000;0;-44
2021/07/05 14:31:48;;;;;;;1.30;1.40;;;;;;;;;;1;1000000000;0;-41
2021/07/05 14:31:54;;;;;;;1.30;1.40;;;;;;;;;;1;1000000000;0;-41
2021/07/05 14:31:58;;;;;;;1.30;1.40;;;;;;;;;;1;1000000000;0;-40
2021/07/05 14:32:03;;;;;;;1.30;1.40;;;;;;;;;;1;1000000000;0;-42
2021/07/05 14:32:07;;;;;;;1.30;1.40;;;;;;;;;;1;1000000000;0;-43
2021/07/05 14:32:12;;;;;;;1.30;1.40;;;;;;;;;;1;1000000000;0;-42
2021/07/05 14:32:16;;;;;;;1.30;1.40;;;;;;;;;;1;1000000000;0;-44
2021/07/05 14:32:20;;;;;;;1.30;1.40;;;;;;;;;;1;1000000000;0;-43
2021/07/05 14:32:25;;;;;;;1.30;1.40;;;;;;;;;;1;1000000000;0;-41
2021/07/05 14:32:29;;;;;;;1.30;1.40;;;;;;;;;;1;1000000000;0;-44
2021/07/05 14:32:33;;;;;;;1.30;1.40;;;;;;;;;;1;1000000000;0;-39
2021/07/05 14:32:38;;;;;;;1.30;1.40;;;;;;;;;;1;1000000000;0;-41
2021/07/05 14:32:42;;;;;;;1.30;1.40;;;;;;;;;;1;1000000000;0;-41
2021/07/05 14:32:47;;;;;;;1.30;1.40;;;;;;;;;;1;1000000000;0;-40
2021/07/05 14:32:51;;;;;;;1.30;1.40;;;;;;;;;;1;1000000000;0;-42
2021/07/05 14:32:55;;;;;;;1.30;1.40;;;;;;;;;;1;1000000000;0;-41
2021/07/05 14:33:00;;;;;;;1.30;1.40;;;;;;;;;;1;1000000000;0;-43
2021/07/05 14:56:09;;;;;;;;;;;;;;;;;;1;1000000000;0;-34
2021/07/05 14:56:13;;;;;;;1.30;1.40;;;;;;;;;;1;1000000000;0;-22
2021/07/05 14:56:18;;;;;;;1.30;1.40;;;;;;;;;;1;1000000000;0;-21
2021/07/05 14:56:22;;;;;;;1.30;1.40;;;;;;;;;;1;1000000000;0;-22
2021/07/05 14:56:27;;;;;;;1.30;1.40;;;;;;;;;;1;1000000000;0;-25
2021/07/05 14:56:31;;;;;;;1.30;1.40;;;;;;;;;;1;1000000000;0;-22
2021/07/05 14:56:36;;;;;;;1.30;1.40;;;;;;;;;;1;1000000000;0;-43
2021/07/05 14:56:40;;;;;;;1.30;1.40;;;;;;;;;;1;1000000000;0;-42
2021/07/05 14:56:45;;;;;;;1.30;1.40;;;;;;;;;;1;1000000000;0;-44
2021/07/05 14:56:49;;;;;;;1.30;1.40;;;;;;;;;;1;1000000000;0;-43
2021/07/05 14:56:54;;;;;;;1.30;1.40;;;;;;;;;;1;1000000000;0;-50
2021/07/05 14:56:59;;;;;;;1.30;1.40;;;;;;;;;;1;1000000000;0;-46
2021/07/05 14:57:04;;;;;;;1.30;1.40;;;;;;;;;;1;1000000000;0;-42
2021/07/05 14:57:15;;;;;;;1.30;1.40;;;;;;;;;;1;1000000000;0;-42
2021/07/05 14:57:19;;;;;;;1.30;1.40;;;;;;;;;;1;1000000000;0;-17
2021/07/05 14:57:25;;;;;;;1.30;1.40;;;;;;;;;;1;1000000000;0;-18
2021/07/05 14:57:31;;;;;;;1.30;1.40;;;;;;;;;;1;1000000000;0;-17
2021/07/05 14:57:36;;;;;;;1.30;1.40;;;;;;;;;;1;1000000000;0;-18
2021/07/05 14:57:40;;;;;;;1.30;1.40;;;;;;;;;;1;1000000000;0;-18
2021/07/05 14:57:45;;;;;;;1.30;1.40;;;;;;;;;;1;1000000000;0;-18
2021/07/05 14:57:50;;;;;;;1.30;1.40;;;;;;;;;;1;1000000000;0;-18
2021/07/05 14:57:55;;;;;;;1.30;1.40;;;;;;;;;;1;1000000000;0;-19
2021/07/05 14:58:00;;;;;;;1.30;1.40;;;;;;;;;;1;1000000000;0;-20
2021/07/05 14:58:05;;;;;;;1.30;1.40;;;;;;;;;;1;1000000000;0;-18
2021/07/05 14:58:11;;;;;;;1.30;1.40;;;;;;;;;;1;1000000000;0;-17
2021/07/05 14:58:16;;;;;;;1.30;1.40;;;;;;;;;;1;1000000000;0;-19
2021/07/05 14:58:20;;;;;;;1.30;1.40;;;;;;;;;;1;1000000000;0;-19
2021/07/05 14:58:25;;;;;;;1.30;1.40;;;;;;;;;;1;1000000000;0;-45
2021/07/05 14:58:29;;;;;;;1.30;1.40;;;;;;;;;;1;1000000000;0;-43
2021/07/05 14:58:33;;;;;;;1.30;1.40;;;;;;;;;;1;1000000000;0;-40
2021/07/05 14:58:38;;;;;;;1.30;1.40;;;;;;;;;;1;1000000000;0;-44
2021/07/05 14:58:42;;;;;;;1.30;1.40;;;;;;;;;;1;1000000000;0;-44
2021/07/05 14:59:31;;;;;;;;;;;;;;;;;;1;1000000000;0;-38
2021/07/05 14:59:35;;;;;;;1.30;1.40;;;;;;;;;;1;1000000000;0;-17
2021/07/05 14:59:40;;;;;;;1.30;1.40;;;;;;;;;;1;1000000000;0;-43
2021/07/05 14:59:48;;;;;;;1.30;1.40;;;;;;;;;;1;1000000000;0;-19
2021/07/05 14:59:52;;;;;;;1.30;1.40;;;;;;;;;;1;1000000000;0;-43
2021/07/05 14:59:57;;;;;;;1.30;1.40;;;;;;;;;;1;1000000000;0;-40
2021/07/05 15:00:01;;;;;;;1.30;1.40;;;;;;;;;;1;1000000000;0;-43
2021/07/05 15:00:08;;;;;;;1.30;1.40;;;;;;;;;;1;1000000000;0;-42
2021/07/05 15:00:16;;;;;;;1.30;1.40;;;;;;;;;;1;1000000000;0;-47
2021/07/05 15:00:26;;;;;;;1.30;1.40;;;;;;;;;;1;1000000000;0;-39
2021/07/05 15:00:33;;;;;;;1.30;1.40;;;;;;;;;;1;1000000000;0;-45
2021/07/05 15:01:42;;;;;;;;;;;;;;;;;;1;1000000000;0;-44
2021/07/05 15:01:46;;;;;;;1.30;1.40;;;;;;;;;;1;1000000000;0;-45
2021/07/05 15:01:50;;;;;;;1.30;1.40;;;;;;;;;;1;1000000000;0;-46
2021/07/05 15:01:55;;;;;;;1.30;1.40;;;;;;;;;;1;1000000000;0;-47
2021/07/05 15:05:49;;;;;;;;;;;;;;;;;;1;1000000000;0;-25
2021/07/05 15:05:53;;;;;;;1.30;1.40;;;;;;;;;;1;1000000000;0;-26
2021/07/05 15:05:57;;;;;;;1.30;1.40;;;;;;;;;;1;1000000000;0;-26
2021/07/05 15:06:02;;;;;;;1.30;1.40;;;;;;;;;;1;1000000000;0;-26
2021/07/05 15:06:06;;;;;;;1.30;1.40;;;;;;;;;;1;1000000000;0;-25
2021/07/05 15:06:11;;;;;;;1.30;1.40;;;;;;;;;;1;1000000000;0;-27
2021/07/05 15:06:16;;;;;;;1.30;1.40;;;;;;;;;;1;1000000000;0;-26
2021/07/05 15:06:20;;;;;;;1.30;1.40;;;;;;;;;;1;1000000000;0;-26
2021/07/05 15:06:25;;;;;;;1.30;1.40;;;;;;;;;;1;1000000000;0;-21
2021/07/05 15:06:29;;;;;;;1.30;1.40;;;;;;;;;;1;1000000000;0;-23
2021/07/05 15:06:34;;;;;;;1.30;1.40;;;;;;;;;;1;1000000000;0;-21
2021/07/05 15:06:39;;;;;;;1.30;1.40;;;;;;;;;;1;1000000000;0;-21
2021/07/05 15:06:44;;;;;;;1.30;1.40;;;;;;;;;;1;1000000000;0;-24
2021/07/05 15:06:48;;;;;;;1.30;1.40;;;;;;;;;;1;1000000000;0;-21
2021/07/05 15:06:53;;;;;;;1.30;1.40;;;;;;;;;;1;1000000000;0;-21
2021/07/05 15:06:57;;;;;;;1.30;1.40;;;;;;;;;;1;1000000000;0;-20
2021/07/05 15:07:02;;;;;;;1.30;1.40;;;;;;;;;;1;1000000000;0;-23
2021/07/05 15:07:06;;;;;;;1.30;1.40;;;;;;;;;;1;1000000000;0;-21
2021/07/05 15:07:10;;;;;;;1.30;1.40;;;;;;;;;;1;1000000000;0;-20
2021/07/05 15:07:15;;;;;;;1.30;1.40;;;;;;;;;;1;1000000000;0;-20
2021/07/05 15:07:21;;;;;;;1.30;1.40;;;;;;;;;;1;1000000000;0;-21
2021/07/05 15:07:25;;;;;;;1.30;1.40;;;;;;;;;;1;1000000000;0;-20
2021/07/05 15:07:30;;;;;;;1.30;1.40;;;;;;;;;;1;1000000000;0;-21
2021/07/05 15:07:35;;;;;;;1.30;1.40;;;;;;;;;;1;1000000000;0;-20
2021/07/05 15:07:40;;;;;;;1.30;1.40;;;;;;;;;;1;1000000000;0;-21
2021/07/05 15:07:44;;;;;;;1.30;1.40;;;;;;;;;;1;1000000000;0;-20
2021/07/05 15:07:49;;;;;;;1.30;1.40;;;;;;;;;;1;1000000000;0;-20
2021/07/05 15:07:54;;;;;;;1.30;1.40;;;;;;;;;;1;1000000000;0;-24
2021/07/05 15:08:00;;;;;;;1.30;1.40;;;;;;;;;;1;1000000000;0;-25
2021/07/05 15:08:04;;;;;;;1.30;1.40;;;;;;;;;;1;1000000000;0;-25
2021/07/05 15:08:11;;;;;;;1.30;1.40;;;;;;;;;;1;1000000000;0;-23
2021/07/05 15:08:15;;;;;;;1.30;1.40;;;;;;;;;;1;1000000000;0;-22
2021/07/05 15:08:20;;;;;;;1.30;1.40;;;;;;;;;;1;1000000000;0;-26
2021/07/05 15:08:25;;;;;;;1.30;1.40;;;;;;;;;;1;1000000000;0;-23
2021/07/05 15:08:29;;;;;;;1.30;1.40;;;;;;;;;;1;1000000000;0;-24
2021/07/05 15:08:34;;;;;;;1.30;1.40;;;;;;;;;;1;1000000000;0;-22
2021/07/05 15:08:39;;;;;;;1.30;1.40;;;;;;;;;;1;1000000000;0;-30
2021/07/05 15:08:43;;;;;;;1.30;1.40;;;;;;;;;;1;1000000000;0;-21
2021/07/05 15:08:48;;;;;;;1.30;1.40;;;;;;;;;;1;1000000000;0;-19
2021/07/05 15:08:52;;;;;;;1.30;1.40;;;;;;;;;;1;1000000000;0;-20
2021/07/05 15:08:57;;;;;;;1.30;1.40;;;;;;;;;;1;1000000000;0;-20
2021/07/05 15:09:01;;;;;;;1.30;1.40;;;;;;;;;;1;1000000000;0;-20
2021/07/05 15:09:07;;;;;;;1.30;1.40;;;;;;;;;;1;1000000000;0;-20
2021/07/05 15:09:12;;;;;;;1.30;1.40;;;;;;;;;;1;1000000000;0;-20
2021/07/05 15:09:17;;;;;;;1.30;1.40;;;;;;;;;;1;1000000000;0;-19
2021/07/05 15:09:22;;;;;;;1.30;1.40;;;;;;;;;;1;1000000000;0;-19
2021/07/05 15:09:26;;;;;;;1.30;1.40;;;;;;;;;;1;1000000000;0;-25
2021/07/05 15:09:31;;;;;;;1.30;1.40;;;;;;;;;;1;1000000000;0;-20
2021/07/05 15:09:35;;;;;;;1.30;1.40;;;;;;;;;;1;1000000000;0;-18
2021/07/05 15:09:41;;;;;;;1.30;1.40;;;;;;;;;;1;1000000000;0;-19
2021/07/05 15:09:48;;;;;;;1.30;1.40;;;;;;;;;;1;1000000000;0;-19
2021/07/05 15:09:53;;;;;;;1.30;1.40;;;;;;;;;;1;1000000000;0;-19
2021/07/05 15:09:57;;;;;;;1.30;1.40;;;;;;;;;;1;1000000000;0;-19
2021/07/05 15:10:02;;;;;;;1.30;1.40;;;;;;;;;;1;1000000000;0;-20
2021/07/05 15:10:08;;;;;;;1.30;1.40;;;;;;;;;;1;1000000000;0;-20
2021/07/05 15:10:16;;;;;;;1.30;1.40;;;;;;;;;;1;1000000000;0;-17
2021/07/05 15:10:20;;;;;;;1.30;1.40;;;;;;;;;;1;1000000000;0;-18
2021/07/05 15:10:25;;;;;;;1.30;1.40;;;;;;;;;;1;1000000000;0;-17
2021/07/05 15:10:30;;;;;;;1.30;1.40;;;;;;;;;;1;1000000000;0;-17
2021/07/05 15:10:34;;;;;;;1.30;1.40;;;;;;;;;;1;1000000000;0;-18
2021/07/05 15:10:39;;;;;;;1.30;1.40;;;;;;;;;;1;1000000000;0;-17
2021/07/05 15:10:43;;;;;;;1.30;1.40;;;;;;;;;;1;1000000000;0;-16
2021/07/05 15:10:47;;;;;;;1.30;1.40;;;;;;;;;;1;1000000000;0;-16
2021/07/05 15:10:52;;;;;;;1.30;1.40;;;;;;;;;;1;1000000000;0;-16
2021/07/05 15:10:57;;;;;;;1.30;1.40;;;;;;;;;;1;1000000000;0;-16
2021/07/05 15:11:02;;;;;;;1.30;1.40;;;;;;;;;;1;1000000000;0;-18
2021/07/05 15:11:06;;;;;;;1.30;1.40;;;;;;;;;;1;1000000000;0;-16
2021/07/05 15:11:11;;;;;;;1.30;1.40;;;;;;;;;;1;1000000000;0;-16
2021/07/05 15:11:15;;;;;;;1.30;1.40;;;;;;;;;;1;1000000000;0;-17
2021/07/05 15:11:20;;;;;;;1.30;1.40;;;;;;;;;;1;1000000000;0;-17
2021/07/05 15:11:24;;;;;;;1.30;1.40;;;;;;;;;;1;1000000000;0;-17
2021/07/05 15:11:29;;;;;;;1.30;1.40;;;;;;;;;;1;1000000000;0;-20
2021/07/05 15:11:33;;;;;;;1.30;1.40;;;;;;;;;;1;1000000000;0;-21
2021/07/05 15:11:38;;;;;;;1.30;1.40;;;;;;;;;;1;1000000000;0;-19
2021/07/05 15:11:42;;;;;;;1.30;1.40;;;;;;;;;;1;1000000000;0;-19
2021/07/05 15:11:47;;;;;;;1.30;1.40;;;;;;;;;;1;1000000000;0;-19
2021/07/05 15:11:52;;;;;;;1.30;1.40;;;;;;;;;;1;1000000000;0;-19
2021/07/05 15:11:56;;;;;;;1.30;1.40;;;;;;;;;;1;1000000000;0;-19
2021/07/05 15:12:01;;;;;;;1.30;1.40;;;;;;;;;;1;1000000000;0;-19
2021/07/05 15:12:06;;;;;;;1.30;1.40;;;;;;;;;;1;1000000000;0;-22
2021/07/05 15:12:11;;;;;;;1.30;1.40;;;;;;;;;;1;1000000000;0;-18
2021/07/05 15:12:46;;;;;;;;;;;;;;;;;;1;1000000000;0;-19
2021/07/05 15:12:56;;;;;;;1.30;1.40;;;;;;;;;;1;1000000000;0;-19
2021/07/05 15:13:03;;;;;;;1.30;1.40;;;;;;;;;;1;1000000000;0;-18
2021/07/05 15:13:08;;;;;;;1.30;1.40;;;;;;;;;;1;1000000000;0;-18
2021/07/05 15:13:15;;;;;;;1.30;1.40;;;;;;;;;;1;1000000000;0;-19
2021/07/05 15:13:19;;;;;;;1.30;1.40;;;;;;;;;;1;1000000000;0;-18
2021/07/05 15:13:28;;;;;;;1.30;1.40;;;;;;;;;;1;1000000000;0;-19
2021/07/05 15:13:36;;;;;;;1.30;1.40;;;;;;;;;;1;1000000000;0;-18
2021/07/05 15:13:41;;;;;;;1.30;1.40;;;;;;;;;;1;1000000000;0;-18
2021/07/05 15:15:58;;;;;;;;;;;;;;;;;;1;1000000000;0;-46
2021/07/05 15:16:03;;;;;;;1.30;1.40;;;;;;;;;;1;1000000000;0;-49
2021/07/05 15:16:07;;;;;;;1.30;1.40;;;;;;;;;;1;1000000000;0;-50
2021/07/05 15:16:11;;;;;;;1.30;1.40;;;;;;;;;;1;1000000000;0;-49
2021/07/05 15:16:16;;;;;;;1.30;1.40;;;;;;;;;;1;1000000000;0;-45
2021/07/05 15:16:20;;;;;;;1.30;1.40;;;;;;;;;;1;1000000000;0;-42
2021/07/05 15:16:24;;;;;;;1.30;1.40;;;;;;;;;;1;1000000000;0;-44
2021/07/05 15:16:29;;;;;;;1.30;1.40;;;;;;;;;;1;1000000000;0;-45
2021/07/05 15:16:33;;;;;;;1.30;1.40;;;;;;;;;;1;1000000000;0;-42
2021/07/05 15:16:38;;;;;;;1.30;1.40;;;;;;;;;;1;1000000000;0;-42
2021/07/05 15:16:43;;;;;;;1.30;1.40;;;;;;;;;;1;1000000000;0;-45
2021/07/05 15:16:47;;;;;;;1.30;1.40;;;;;;;;;;1;1000000000;0;-42
2021/07/05 15:16:51;;;;;;;1.30;1.40;;;;;;;;;;1;1000000000;0;-40
2021/07/05 15:16:56;;;;;;;1.30;1.40;;;;;;;;;;1;1000000000;0;-41
2021/07/05 15:17:01;;;;;;;1.30;1.40;;;;;;;;;;1;1000000000;0;-40
2021/07/05 15:17:06;;;;;;;1.30;1.40;;;;;;;;;;1;1000000000;0;-42
2021/07/05 15:17:10;;;;;;;1.30;1.40;;;;;;;;;;1;1000000000;0;-41
2021/07/05 15:17:14;;;;;;;1.30;1.40;;;;;;;;;;1;1000000000;0;-41
2021/07/05 15:17:19;;;;;;;1.30;1.40;;;;;;;;;;1;1000000000;0;-40
2021/07/05 15:17:23;;;;;;;1.30;1.40;;;;;;;;;;1;1000000000;0;-41
2021/07/05 15:17:28;;;;;;;1.30;1.40;;;;;;;;;;1;1000000000;0;-38
2021/07/05 15:17:32;;;;;;;1.30;1.40;;;;;;;;;;1;1000000000;0;-41
2021/07/05 15:17:36;;;;;;;1.30;1.40;;;;;;;;;;1;1000000000;0;-40
2021/07/05 15:17:41;;;;;;;1.30;1.40;;;;;;;;;;1;1000000000;0;-41
2021/07/05 15:17:46;;;;;;;1.30;1.40;;;;;;;;;;1;1000000000;0;-40
2021/07/05 15:18:24;;;;;;;;;;;;;;;;;;1;1000000000;0;-37
2021/07/05 15:18:28;;;;;;;1.30;1.40;;;;;;;;;;1;1000000000;0;-39
2021/07/05 15:18:33;;;;;;;1.30;1.40;;;;;;;;;;1;1000000000;0;-40
2021/07/05 15:18:37;;;;;;;1.30;1.40;;;;;;;;;;1;1000000000;0;-40
2021/07/05 15:18:41;;;;;;;1.30;1.40;;;;;;;;;;1;1000000000;0;-41
2021/07/05 15:18:46;;;;;;;1.30;1.40;;;;;;;;;;1;1000000000;0;-37
2021/07/05 15:18:50;;;;;;;1.30;1.40;;;;;;;;;;1;1000000000;0;-37
2021/07/05 15:18:54;;;;;;;1.30;1.40;;;;;;;;;;1;1000000000;0;-37
2021/07/05 15:18:59;;;;;;;1.30;1.40;;;;;;;;;;1;1000000000;0;-38
2021/07/05 15:19:04;;;;;;;1.30;1.40;;;;;;;;;;1;1000000000;0;-37
2021/07/05 15:19:09;;;;;;;1.30;1.40;;;;;;;;;;1;1000000000;0;-38
2021/07/05 15:19:15;;;;;;;1.30;1.40;;;;;;;;;;1;1000000000;0;-38
2021/07/05 15:19:21;;;;;;;1.30;1.40;;;;;;;;;;1;1000000000;0;-40
2021/07/05 15:19:27;;;;;;;1.30;1.40;;;;;;;;;;1;1000000000;0;-41
2021/07/05 15:19:31;;;;;;;1.30;1.40;;;;;;;;;;1;1000000000;0;-42
2021/07/05 15:19:36;;;;;;;1.30;1.40;;;;;;;;;;1;1000000000;0;-42
2021/07/05 15:19:41;;;;;;;1.30;1.40;;;;;;;;;;1;1000000000;0;-38
2021/07/05 15:19:45;;;;;;;1.30;1.40;;;;;;;;;;1;1000000000;0;-46
2021/07/05 15:19:50;;;;;;;1.30;1.40;;;;;;;;;;1;1000000000;0;-50
2021/07/05 15:19:54;;;;;;;1.30;1.40;;;;;;;;;;1;1000000000;0;-46
2021/07/05 15:19:58;;;;;;;1.30;1.40;;;;;;;;;;1;1000000000;0;-45
2021/07/05 15:20:03;;;;;;;1.30;1.40;;;;;;;;;;1;1000000000;0;-46
2021/07/05 15:20:09;;;;;;;1.30;1.40;;;;;;;;;;1;1000000000;0;-45
2021/07/05 15:22:27;;;;;;;;;;;;;;;;;;1;1000000000;0;-55
2021/07/05 15:22:31;;;;;;;1.30;1.40;;;;;;;;;;1;1000000000;0;-37
2021/07/05 15:22:36;;;;;;;1.30;1.40;;;;;;;;;;1;1000000000;0;-33
2021/07/05 15:22:40;;;;;;;1.30;1.40;;;;;;;;;;1;1000000000;0;-29
2021/07/05 15:22:47;;;;;;;1.30;1.40;;;;;;;;;;1;1000000000;0;-44
2021/07/05 15:22:55;;;;;;;1.30;1.40;;;;;;;;;;1;1000000000;0;-42
2021/07/05 15:23:02;;;;;;;1.30;1.40;;;;;;;;;;1;1000000000;0;-44
2021/07/05 15:23:08;;;;;;;1.30;1.40;;;;;;;;;;1;1000000000;0;-42
2021/07/05 15:23:13;;;;;;;1.30;1.40;;;;;;;;;;1;1000000000;0;-29
2021/07/05 15:23:17;;;;;;;1.30;1.40;;;;;;;;;;1;1000000000;0;-29
2021/07/05 15:23:22;;;;;;;1.30;1.40;;;;;;;;;;1;1000000000;0;-32
2021/07/05 15:23:26;;;;;;;1.30;1.40;;;;;;;;;;1;1000000000;0;-46
2021/07/05 15:23:30;;;;;;;1.30;1.40;;;;;;;;;;1;1000000000;0;-45
2021/07/05 15:23:35;;;;;;;1.30;1.40;;;;;;;;;;1;1000000000;0;-46
2021/07/05 15:23:40;;;;;;;1.30;1.40;;;;;;;;;;1;1000000000;0;-42
2021/07/05 15:23:45;;;;;;;1.30;1.40;;;;;;;;;;1;1000000000;0;-43
2021/07/05 15:23:51;;;;;;;1.30;1.40;;;;;;;;;;1;1000000000;0;-45
2021/07/05 15:23:56;;;;;;;1.30;1.40;;;;;;;;;;1;1000000000;0;-47
2021/07/05 15:24:02;;;;;;;1.30;1.40;;;;;;;;;;1;1000000000;0;-55
2021/07/05 15:24:07;;;;;;;1.30;1.40;;;;;;;;;;1;1000000000;0;-52
2021/07/05 15:24:11;;;;;;;1.30;1.40;;;;;;;;;;1;1000000000;0;-47
2021/07/05 15:24:16;;;;;;;1.30;1.40;;;;;;;;;;1;1000000000;0;-47
2021/07/05 15:24:21;;;;;;;1.30;1.40;;;;;;;;;;1;1000000000;0;-49
2021/07/05 15:24:26;;;;;;;1.30;1.40;;;;;;;;;;1;1000000000;0;-51
2021/07/05 15:24:31;;;;;;;1.30;1.40;;;;;;;;;;1;1000000000;0;-45
2021/07/05 15:24:35;;;;;;;1.30;1.40;;;;;;;;;;1;1000000000;0;-46
2021/07/05 15:24:40;;;;;;;1.30;1.40;;;;;;;;;;1;1000000000;0;-48
2021/07/05 15:24:45;;;;;;;1.30;1.40;;;;;;;;;;1;1000000000;0;-45
2021/07/05 15:24:50;;;;;;;1.30;1.40;;;;;;;;;;1;1000000000;0;-49
2021/07/05 15:24:54;;;;;;;1.30;1.40;;;;;;;;;;1;1000000000;0;-45
2021/07/05 15:24:59;;;;;;;1.30;1.40;;;;;;;;;;1;1000000000;0;-48
2021/07/05 15:25:05;;;;;;;1.30;1.40;;;;;;;;;;1;1000000000;0;-43
2021/07/05 15:25:11;;;;;;;1.30;1.40;;;;;;;;;;1;1000000000;0;-46
2021/07/05 15:25:16;;;;;;;1.30;1.40;;;;;;;;;;1;1000000000;0;-36
2021/07/05 15:25:20;;;;;;;1.30;1.40;;;;;;;;;;1;1000000000;0;-38
2021/07/05 15:25:25;;;;;;;1.30;1.40;;;;;;;;;;1;1000000000;0;-38
2021/07/05 15:25:29;;;;;;;1.30;1.40;;;;;;;;;;1;1000000000;0;-38
2021/07/05 15:25:35;;;;;;;1.30;1.40;;;;;;;;;;1;1000000000;0;-37
2021/07/05 15:25:40;;;;;;;1.30;1.40;;;;;;;;;;1;1000000000;0;-38
2021/07/05 15:25:45;;;;;;;1.30;1.40;;;;;;;;;;1;1000000000;0;-38
2021/07/05 15:25:49;;;;;;;1.30;1.40;;;;;;;;;;1;1000000000;0;-38
2021/07/05 15:25:54;;;;;;;1.30;1.40;;;;;;;;;;1;1000000000;0;-36
2021/07/05 15:25:59;;;;;;;1.30;1.40;;;;;;;;;;1;1000000000;0;-37
2021/07/05 15:26:04;;;;;;;1.30;1.40;;;;;;;;;;1;1000000000;0;-38
2021/07/05 15:26:10;;;;;;;1.30;1.40;;;;;;;;;;1;1000000000;0;-40
2021/07/05 15:26:15;;;;;;;1.30;1.40;;;;;;;;;;1;1000000000;0;-42
2021/07/05 15:26:20;;;;;;;1.30;1.40;;;;;;;;;;1;1000000000;0;-34
2021/07/05 15:26:24;;;;;;;1.30;1.40;;;;;;;;;;1;1000000000;0;-35
2021/07/05 15:26:28;;;;;;;1.30;1.40;;;;;;;;;;1;1000000000;0;-36
2021/07/05 15:26:34;;;;;;;1.30;1.40;;;;;;;;;;1;1000000000;0;-39
2021/07/05 15:26:39;;;;;;;1.30;1.40;;;;;;;;;;1;1000000000;0;-38
2021/07/05 15:26:44;;;;;;;1.30;1.40;;;;;;;;;;1;1000000000;0;-38
2021/07/05 15:26:49;;;;;;;1.30;1.40;;;;;;;;;;1;1000000000;0;-37
2021/07/05 15:26:53;;;;;;;1.30;1.40;;;;;;;;;;1;1000000000;0;-60
2021/07/05 15:26:58;;;;;;;1.30;1.40;;;;;;;;;;1;1000000000;0;-88
2021/07/05 15:27:13;;;;;;;;;;;;;;;;;;;;;
2021/07/05 15:27:23;;;;;;;1.30;1.40;;;;;;;;;;1;1000000000;0;-92
2021/07/05 15:27:28;;;;;;;1.30;1.40;;;;;;;;;;1;1000000000;0;-85
2021/07/05 15:27:32;;;;;;;1.30;1.40;;;;;;;;;;1;1000000000;0;-81
2021/07/05 15:27:36;;;;;;;1.30;1.40;;;;;;;;;;1;1000000000;0;-78
2021/07/05 15:27:41;;;;;;;1.30;1.40;;;;;;;;;;1;1000000000;0;-44
2021/07/05 15:27:45;;;;;;;1.30;1.40;;;;;;;;;;1;1000000000;0;-40
2021/07/05 15:27:49;;;;;;;1.30;1.40;;;;;;;;;;1;1000000000;0;-40
2021/07/05 15:27:54;;;;;;;1.30;1.40;;;;;;;;;;1;1000000000;0;-40
2021/07/05 15:27:58;;;;;;;1.30;1.40;;;;;;;;;;1;1000000000;0;-40
2021/07/05 15:28:02;;;;;;;1.30;1.40;;;;;;;;;;1;1000000000;0;-40
2021/07/05 15:28:07;;;;;;;1.30;1.40;;;;;;;;;;1;1000000000;0;-39
2021/07/05 15:28:13;;;;;;;1.30;1.40;;;;;;;;;;1;1000000000;0;-49
2021/07/05 15:28:17;;;;;;;1.30;1.40;;;;;;;;;;1;1000000000;0;-48
2021/07/05 15:28:22;;;;;;;1.30;1.40;;;;;;;;;;1;1000000000;0;-50
2021/07/05 15:28:26;;;;;;;1.30;1.40;;;;;;;;;;1;1000000000;0;-42
2021/07/05 15:28:30;;;;;;;1.30;1.40;;;;;;;;;;1;1000000000;0;-48
2021/07/05 15:28:35;;;;;;;1.30;1.40;;;;;;;;;;1;1000000000;0;-46
2021/07/05 15:28:39;;;;;;;1.30;1.40;;;;;;;;;;1;1000000000;0;-46
2021/07/05 15:28:44;;;;;;;1.30;1.40;;;;;;;;;;1;1000000000;0;-49
2021/07/05 15:28:48;;;;;;;1.30;1.40;;;;;;;;;;1;1000000000;0;-50
2021/07/05 15:28:53;;;;;;;1.30;1.40;;;;;;;;;;1;1000000000;0;-47
2021/07/05 15:28:59;;;;;;;1.30;1.40;;;;;;;;;;1;1000000000;0;-45
2021/07/05 15:29:04;;;;;;;1.30;1.40;;;;;;;;;;1;1000000000;0;-46
2021/07/05 15:29:08;;;;;;;1.30;1.40;;;;;;;;;;1;1000000000;0;-47
2021/07/05 15:29:12;;;;;;;1.30;1.40;;;;;;;;;;1;1000000000;0;-46
2021/07/05 15:29:17;;;;;;;1.30;1.40;;;;;;;;;;1;1000000000;0;-46
2021/07/05 15:29:21;;;;;;;1.30;1.40;;;;;;;;;;1;1000000000;0;-47
2021/07/05 15:29:26;;;;;;;1.30;1.40;;;;;;;;;;1;1000000000;0;-45
2021/07/05 15:29:30;;;;;;;1.30;1.40;;;;;;;;;;1;1000000000;0;-48
2021/07/05 15:29:36;;;;;;;1.30;1.40;;;;;;;;;;1;1000000000;0;-49
2021/07/05 15:29:40;;;;;;;1.30;1.40;;;;;;;;;;1;1000000000;0;-53
2021/07/05 15:29:45;;;;;;;1.30;1.40;;;;;;;;;;1;1000000000;0;-56